Aérodrome :
LOGIN :

S'inscrire | Disclaimer

   EN    FR    IT 

 










Légende :    VFR   VFR Marginal   IFR   IFR Intensif   IFR Très Intensif
Visi : 
Plafond : 
>= 8 km
>= 3000ft
5 à 8 km
1000 à 3000 ft
1500m à 5 km
500 à 1000 ft
800 à 1500m
200 à 500 ft
< 800m
< 200 ft
Symboles :   Orages  Brouillard  Fortes neiges  Fortes précipitations  Vent > 20 kt
SIGMETs :   Divers  Orages  Givrage  Turbulence  Onde Orograph.  Cendres Volcan.






- Altitude de l'aérodrome : 359 ft
- Code IATA : BVA


LFOB - Beauvais

DERNIER METAR :
  • 282200Z AUTO VRB02KT 1000 0700 R30/2500U R12/0600D BCFG VV/// 04/03 Q1013 TEMPO 0200

METARs EXPIRÉS :
  • 282130Z AUTO VRB02KT 0750 0550 R30/0800U R12/P5000 FG VV/// 04/03 Q1013 TEMPO 0200 SCT040
  • 282100Z AUTO 10001KT 2000 1300 R30/1200U R12/2800D BR FEW001 BKN160 OVC180 04/04 Q1013 BECMG 3000 BR
  • 282030Z AUTO VRB01KT 3000 0650 R30/2000D R12/P5000 BCFG FEW001 BKN050 BKN180 04/03 Q1013 NOSIG
  • 282000Z AUTO 00000KT 4500 2000 -DZ BR FEW034 BKN210 BKN240 04/04 Q1013 BECMG 9999 NSW
  • 281930Z AUTO 13002KT 6000 FEW036 BKN210 04/04 Q1013 NOSIG

TAF AMD TAF LFOB
Valide du 28 à 21h jusqu'au 29 à 18h UTC


282129Z 2821/2918 VRB02KT 3000 BR SCT040
PROB40 2821/2910 0500 FG VV///
PROB40
TEMPO 2823/2909 0200
BECMG 2910/2912 9999 NSW BKN012
BECMG 2912/2914 BKN020
ATIS : +33 3 44 11 49 28



MET'MAP, la Météo Aéronautique d'un coup d'oeil ! - Copyright ORBIFLY Décembre 2007 - Disclaimer

ORBIFLY MET'MAP TEAM :

Programmation & Développement : Alexandra Zaïnal
Sur une idée originale de : Baudouin d'Aumeries
Soutien technique & logistique : Manuel Goepfert
Assistance : Marc-Olivier Méhu




SOURCES & CREDITS :

   NOAA